sensor_id;sensor_type;location;lat;lon;timestamp;pressure;altitude;pressure_sealevel;temperature;humidity
75549;BME280;64133;56.002;37.208;2023-04-30T00:00:43;99407.03;;;2.94;69.12
75549;BME280;64133;56.002;37.208;2023-04-30T00:05:51;99410.25;;;2.91;69.40
75549;BME280;64133;56.002;37.208;2023-04-30T00:10:55;99413.08;;;2.86;69.55
75549;BME280;64133;56.002;37.208;2023-04-30T00:16:00;99422.17;;;2.77;69.58
75549;BME280;64133;56.002;37.208;2023-04-30T00:21:05;99421.19;;;2.71;69.72
75549;BME280;64133;56.002;37.208;2023-04-30T00:26:10;99430.81;;;2.69;70.08
75549;BME280;64133;56.002;37.208;2023-04-30T00:31:15;99427.74;;;2.70;70.18
75549;BME280;64133;56.002;37.208;2023-04-30T00:36:19;99435.72;;;2.67;70.47
75549;BME280;64133;56.002;37.208;2023-04-30T00:41:24;99443.88;;;2.59;70.75
75549;BME280;64133;56.002;37.208;2023-04-30T00:46:29;99447.30;;;2.51;71.11
75549;BME280;64133;56.002;37.208;2023-04-30T00:51:36;99445.38;;;2.46;71.34
75549;BME280;64133;56.002;37.208;2023-04-30T00:56:41;99447.36;;;2.41;71.51
75549;BME280;64133;56.002;37.208;2023-04-30T01:01:46;99453.53;;;2.38;71.67
75549;BME280;64133;56.002;37.208;2023-04-30T01:06:51;99444.73;;;2.32;71.96
75549;BME280;64133;56.002;37.208;2023-04-30T01:11:59;99441.19;;;2.24;72.36
75549;BME280;64133;56.002;37.208;2023-04-30T01:17:05;99440.19;;;2.18;72.72
75549;BME280;64133;56.002;37.208;2023-04-30T01:22:11;99430.44;;;2.13;72.84
75549;BME280;64133;56.002;37.208;2023-04-30T01:27:21;99439.31;;;2.09;72.99
75549;BME280;64133;56.002;37.208;2023-04-30T01:32:20;99446.33;;;2.07;73.18
75549;BME280;64133;56.002;37.208;2023-04-30T01:37:28;99448.59;;;2.05;73.15
75549;BME280;64133;56.002;37.208;2023-04-30T01:42:35;99448.80;;;2.00;73.04
75549;BME280;64133;56.002;37.208;2023-04-30T01:47:39;99445.48;;;2.07;72.96
75549;BME280;64133;56.002;37.208;2023-04-30T01:52:45;99440.12;;;2.01;72.80
75549;BME280;64133;56.002;37.208;2023-04-30T01:57:55;99444.48;;;2.00;72.87
75549;BME280;64133;56.002;37.208;2023-04-30T02:02:57;99441.80;;;2.02;72.90
75549;BME280;64133;56.002;37.208;2023-04-30T02:08:01;99444.05;;;2.10;72.75
75549;BME280;64133;56.002;37.208;2023-04-30T02:13:06;99444.14;;;2.17;72.73
75549;BME280;64133;56.002;37.208;2023-04-30T02:18:11;99446.26;;;2.28;72.54
75549;BME280;64133;56.002;37.208;2023-04-30T02:23:16;99438.78;;;2.39;72.41
75549;BME280;64133;56.002;37.208;2023-04-30T02:28:20;99439.80;;;2.45;72.16
75549;BME280;64133;56.002;37.208;2023-04-30T02:33:25;99434.87;;;2.58;72.09
75549;BME280;64133;56.002;37.208;2023-04-30T02:38:30;99426.25;;;2.74;71.67
75549;BME280;64133;56.002;37.208;2023-04-30T02:43:34;99421.95;;;2.99;71.27
75549;BME280;64133;56.002;37.208;2023-04-30T02:48:39;99416.61;;;3.11;70.71
75549;BME280;64133;56.002;37.208;2023-04-30T02:53:44;99410.69;;;3.25;70.25
75549;BME280;64133;56.002;37.208;2023-04-30T02:58:48;99413.63;;;3.52;69.89
75549;BME280;64133;56.002;37.208;2023-04-30T03:03:53;99405.83;;;3.76;69.15
75549;BME280;64133;56.002;37.208;2023-04-30T03:08:58;99403.75;;;3.99;68.66
75549;BME280;64133;56.002;37.208;2023-04-30T03:14:03;99397.83;;;4.36;68.26
75549;BME280;64133;56.002;37.208;2023-04-30T03:19:08;99402.22;;;5.68;66.62
75549;BME280;64133;56.002;37.208;2023-04-30T03:24:12;99387.42;;;11.73;59.90
75549;BME280;64133;56.002;37.208;2023-04-30T03:29:17;99389.03;;;21.93;38.02
75549;BME280;64133;56.002;37.208;2023-04-30T03:34:22;99386.73;;;25.66;30.54
75549;BME280;64133;56.002;37.208;2023-04-30T03:39:26;99386.41;;;27.88;26.29
75549;BME280;64133;56.002;37.208;2023-04-30T03:44:31;99381.99;;;27.84;25.17
75549;BME280;64133;56.002;37.208;2023-04-30T03:49:36;99381.61;;;28.04;23.96
75549;BME280;64133;56.002;37.208;2023-04-30T03:54:41;99371.66;;;28.93;22.79
75549;BME280;64133;56.002;37.208;2023-04-30T03:59:45;99365.80;;;29.68;21.60
75549;BME280;64133;56.002;37.208;2023-04-30T04:04:50;99356.69;;;31.71;19.88
75549;BME280;64133;56.002;37.208;2023-04-30T04:09:55;99361.00;;;31.65;19.35
75549;BME280;64133;56.002;37.208;2023-04-30T04:15:00;99365.36;;;31.63;19.08
75549;BME280;64133;56.002;37.208;2023-04-30T04:20:06;99355.84;;;31.66;18.66
75549;BME280;64133;56.002;37.208;2023-04-30T04:25:11;99356.60;;;32.06;18.26
75549;BME280;64133;56.002;37.208;2023-04-30T04:30:16;99356.70;;;33.82;16.55
75549;BME280;64133;56.002;37.208;2023-04-30T04:40:34;99346.97;;;34.28;14.65
75549;BME280;64133;56.002;37.208;2023-04-30T04:45:39;99344.96;;;34.49;15.24
75549;BME280;64133;56.002;37.208;2023-04-30T04:50:44;99342.84;;;35.12;14.38
75549;BME280;64133;56.002;37.208;2023-04-30T04:55:48;99339.87;;;34.24;14.83
75549;BME280;64133;56.002;37.208;2023-04-30T05:00:53;99338.75;;;33.56;14.98
75549;BME280;64133;56.002;37.208;2023-04-30T05:05:58;99335.94;;;31.23;15.90
75549;BME280;64133;56.002;37.208;2023-04-30T05:11:03;99334.97;;;30.18;16.10
75549;BME280;64133;56.002;37.208;2023-04-30T05:16:07;99337.31;;;28.98;16.58
75549;BME280;64133;56.002;37.208;2023-04-30T05:21:12;99340.34;;;30.94;15.29
75549;BME280;64133;56.002;37.208;2023-04-30T05:26:17;99337.17;;;31.40;14.08
75549;BME280;64133;56.002;37.208;2023-04-30T05:31:22;99340.28;;;32.14;13.77
75549;BME280;64133;56.002;37.208;2023-04-30T05:36:26;99335.94;;;32.18;13.28
75549;BME280;64133;56.002;37.208;2023-04-30T05:41:31;99339.11;;;31.44;13.32
75549;BME280;64133;56.002;37.208;2023-04-30T05:46:36;99334.12;;;32.49;12.87
75549;BME280;64133;56.002;37.208;2023-04-30T05:51:41;99339.52;;;34.83;11.44
75549;BME280;64133;56.002;37.208;2023-04-30T05:56:46;99341.75;;;32.44;12.15
75549;BME280;64133;56.002;37.208;2023-04-30T06:01:51;99341.99;;;31.77;12.60
75549;BME280;64133;56.002;37.208;2023-04-30T06:06:56;99330.84;;;32.60;12.10
75549;BME280;64133;56.002;37.208;2023-04-30T06:12:01;99338.65;;;30.12;13.22
75549;BME280;64133;56.002;37.208;2023-04-30T06:17:05;99323.86;;;31.98;12.28
75549;BME280;64133;56.002;37.208;2023-04-30T06:22:13;99322.76;;;28.42;14.33
75549;BME280;64133;56.002;37.208;2023-04-30T06:27:18;99336.45;;;31.20;12.71
75549;BME280;64133;56.002;37.208;2023-04-30T06:32:23;99347.06;;;30.11;12.73
75549;BME280;64133;56.002;37.208;2023-04-30T06:37:27;99325.20;;;29.57;13.14
75549;BME280;64133;56.002;37.208;2023-04-30T06:42:32;99335.70;;;33.75;10.55
75549;BME280;64133;56.002;37.208;2023-04-30T06:47:37;99336.03;;;32.69;11.03
75549;BME280;64133;56.002;37.208;2023-04-30T06:52:41;99326.28;;;31.87;11.53
75549;BME280;64133;56.002;37.208;2023-04-30T06:57:47;99321.79;;;31.68;11.17
75549;BME280;64133;56.002;37.208;2023-04-30T07:02:53;99329.11;;;30.86;11.80
75549;BME280;64133;56.002;37.208;2023-04-30T07:07:59;99318.11;;;29.97;12.22
75549;BME280;64133;56.002;37.208;2023-04-30T07:13:03;99304.89;;;27.63;13.60
75549;BME280;64133;56.002;37.208;2023-04-30T07:18:10;99298.48;;;24.17;15.38
75549;BME280;64133;56.002;37.208;2023-04-30T07:23:12;99273.65;;;22.88;17.33
75549;BME280;64133;56.002;37.208;2023-04-30T07:28:17;99275.34;;;22.95;16.89
75549;BME280;64133;56.002;37.208;2023-04-30T07:33:22;99270.66;;;21.27;17.91
75549;BME280;64133;56.002;37.208;2023-04-30T07:38:27;99263.08;;;21.48;18.06
75549;BME280;64133;56.002;37.208;2023-04-30T07:43:32;99256.50;;;22.42;17.48
75549;BME280;64133;56.002;37.208;2023-04-30T07:48:37;99245.80;;;25.64;15.74
75549;BME280;64133;56.002;37.208;2023-04-30T07:53:41;99239.89;;;27.11;14.15
75549;BME280;64133;56.002;37.208;2023-04-30T07:58:46;99239.97;;;22.01;17.59
75549;BME280;64133;56.002;37.208;2023-04-30T08:03:51;99234.88;;;22.33;17.46
75549;BME280;64133;56.002;37.208;2023-04-30T08:08:56;99228.58;;;18.11;20.70
75549;BME280;64133;56.002;37.208;2023-04-30T08:14:00;99214.14;;;17.39;22.15
75549;BME280;64133;56.002;37.208;2023-04-30T08:19:05;99199.56;;;18.76;21.17
75549;BME280;64133;56.002;37.208;2023-04-30T08:24:10;99194.81;;;17.72;21.80
75549;BME280;64133;56.002;37.208;2023-04-30T08:29:15;99176.13;;;17.49;22.86
75549;BME280;64133;56.002;37.208;2023-04-30T08:34:19;99175.34;;;17.01;24.06
75549;BME280;64133;56.002;37.208;2023-04-30T08:39:27;99167.27;;;15.80;24.58
75549;BME280;64133;56.002;37.208;2023-04-30T08:44:31;99162.42;;;14.30;27.29
75549;BME280;64133;56.002;37.208;2023-04-30T08:49:37;99147.06;;;14.86;26.01
75549;BME280;64133;56.002;37.208;2023-04-30T08:54:41;99143.73;;;13.01;28.04
75549;BME280;64133;56.002;37.208;2023-04-30T08:59:46;99132.15;;;13.71;28.58
75549;BME280;64133;56.002;37.208;2023-04-30T09:04:51;99124.09;;;14.69;27.95
75549;BME280;64133;56.002;37.208;2023-04-30T09:09:56;99115.16;;;14.00;28.35
75549;BME280;64133;56.002;37.208;2023-04-30T09:15:01;99114.44;;;14.60;28.56
75549;BME280;64133;56.002;37.208;2023-04-30T09:20:10;99099.84;;;14.33;28.16
75549;BME280;64133;56.002;37.208;2023-04-30T09:25:15;99081.58;;;14.87;28.03
75549;BME280;64133;56.002;37.208;2023-04-30T09:30:33;99092.86;;;14.28;28.48
75549;BME280;64133;56.002;37.208;2023-04-30T09:35:36;99082.75;;;14.06;28.84
75549;BME280;64133;56.002;37.208;2023-04-30T09:40:41;99066.47;;;13.75;29.44
75549;BME280;64133;56.002;37.208;2023-04-30T09:45:46;99057.70;;;13.74;29.58
75549;BME280;64133;56.002;37.208;2023-04-30T09:50:53;99042.82;;;14.51;28.97
75549;BME280;64133;56.002;37.208;2023-04-30T10:01:10;99034.74;;;14.05;29.54
75549;BME280;64133;56.002;37.208;2023-04-30T10:06:14;99034.74;;;13.07;29.87
75549;BME280;64133;56.002;37.208;2023-04-30T10:11:19;99018.84;;;13.57;29.95
75549;BME280;64133;56.002;37.208;2023-04-30T10:16:32;99011.50;;;14.21;29.61
75549;BME280;64133;56.002;37.208;2023-04-30T10:21:34;99010.02;;;13.96;29.34
75549;BME280;64133;56.002;37.208;2023-04-30T10:26:40;99005.75;;;14.60;28.64
75549;BME280;64133;56.002;37.208;2023-04-30T10:31:45;99005.19;;;14.18;29.10
75549;BME280;64133;56.002;37.208;2023-04-30T10:36:53;99001.86;;;13.86;29.58
75549;BME280;64133;56.002;37.208;2023-04-30T10:42:02;99004.22;;;13.49;30.06
75549;BME280;64133;56.002;37.208;2023-04-30T10:47:07;99002.34;;;13.59;30.39
75549;BME280;64133;56.002;37.208;2023-04-30T10:52:11;99002.40;;;13.67;29.81
75549;BME280;64133;56.002;37.208;2023-04-30T10:57:16;99006.36;;;13.14;30.44
75549;BME280;64133;56.002;37.208;2023-04-30T11:02:21;99013.57;;;12.90;30.82
75549;BME280;64133;56.002;37.208;2023-04-30T11:07:26;99012.79;;;12.93;30.75
75549;BME280;64133;56.002;37.208;2023-04-30T11:12:32;99018.74;;;12.95;30.87
75549;BME280;64133;56.002;37.208;2023-04-30T11:17:36;99003.52;;;12.79;31.71
75549;BME280;64133;56.002;37.208;2023-04-30T11:22:41;98989.84;;;13.29;31.33
75549;BME280;64133;56.002;37.208;2023-04-30T11:27:46;98987.42;;;14.10;30.69
75549;BME280;64133;56.002;37.208;2023-04-30T11:32:51;98998.64;;;14.64;29.46
75549;BME280;64133;56.002;37.208;2023-04-30T11:38:03;98979.99;;;14.94;29.55
75549;BME280;64133;56.002;37.208;2023-04-30T11:43:06;98981.61;;;14.83;29.45
75549;BME280;64133;56.002;37.208;2023-04-30T11:48:11;98985.66;;;15.16;29.35
75549;BME280;64133;56.002;37.208;2023-04-30T11:53:15;98980.48;;;13.83;30.17
75549;BME280;64133;56.002;37.208;2023-04-30T11:58:20;98974.25;;;12.91;31.46
75549;BME280;64133;56.002;37.208;2023-04-30T12:03:38;98956.87;;;12.56;31.90
75549;BME280;64133;56.002;37.208;2023-04-30T12:08:39;98941.70;;;12.45;32.47
75549;BME280;64133;56.002;37.208;2023-04-30T12:19:04;98915.33;;;12.49;32.59
75549;BME280;64133;56.002;37.208;2023-04-30T12:24:09;98924.73;;;12.47;33.12
75549;BME280;64133;56.002;37.208;2023-04-30T12:29:14;98927.37;;;12.47;33.03
75549;BME280;64133;56.002;37.208;2023-04-30T12:34:19;98912.89;;;12.51;33.18
75549;BME280;64133;56.002;37.208;2023-04-30T12:39:24;98918.34;;;12.22;33.67
75549;BME280;64133;56.002;37.208;2023-04-30T12:44:29;98918.92;;;12.30;33.91
75549;BME280;64133;56.002;37.208;2023-04-30T12:49:34;98925.07;;;12.48;34.01
75549;BME280;64133;56.002;37.208;2023-04-30T12:54:39;98918.39;;;12.26;34.33
75549;BME280;64133;56.002;37.208;2023-04-30T12:59:57;98911.84;;;12.03;34.21
75549;BME280;64133;56.002;37.208;2023-04-30T13:05:02;98908.99;;;12.00;34.29
75549;BME280;64133;56.002;37.208;2023-04-30T13:10:09;98896.00;;;12.17;34.40
75549;BME280;64133;56.002;37.208;2023-04-30T13:15:13;98880.91;;;12.27;34.29
75549;BME280;64133;56.002;37.208;2023-04-30T13:20:18;98881.82;;;12.04;34.61
75549;BME280;64133;56.002;37.208;2023-04-30T13:25:23;98879.13;;;12.00;34.64
75549;BME280;64133;56.002;37.208;2023-04-30T13:30:28;98892.88;;;11.90;35.10
75549;BME280;64133;56.002;37.208;2023-04-30T13:35:32;98883.97;;;12.04;35.37
75549;BME280;64133;56.002;37.208;2023-04-30T13:40:37;98883.65;;;11.80;35.71
75549;BME280;64133;56.002;37.208;2023-04-30T13:45:42;98870.08;;;11.65;36.02
75549;BME280;64133;56.002;37.208;2023-04-30T13:50:47;98865.89;;;11.49;36.27
75549;BME280;64133;56.002;37.208;2023-04-30T13:55:52;98854.00;;;11.35;36.69
75549;BME280;64133;56.002;37.208;2023-04-30T14:00:57;98842.63;;;11.35;37.24
75549;BME280;64133;56.002;37.208;2023-04-30T14:06:02;98826.34;;;11.25;37.68
75549;BME280;64133;56.002;37.208;2023-04-30T14:11:08;98817.30;;;11.51;37.98
75549;BME280;64133;56.002;37.208;2023-04-30T14:16:13;98817.91;;;11.36;38.27
75549;BME280;64133;56.002;37.208;2023-04-30T14:21:18;98806.00;;;11.08;39.05
75549;BME280;64133;56.002;37.208;2023-04-30T14:26:23;98802.41;;;11.23;39.36
75549;BME280;64133;56.002;37.208;2023-04-30T14:31:27;98789.75;;;11.13;39.60
75549;BME280;64133;56.002;37.208;2023-04-30T14:36:32;98787.02;;;11.18;40.17
75549;BME280;64133;56.002;37.208;2023-04-30T14:41:37;98791.80;;;10.95;40.35
75549;BME280;64133;56.002;37.208;2023-04-30T14:46:42;98776.88;;;11.00;40.82
75549;BME280;64133;56.002;37.208;2023-04-30T14:51:46;98760.30;;;11.03;41.17
75549;BME280;64133;56.002;37.208;2023-04-30T14:56:51;98754.20;;;11.03;41.29
75549;BME280;64133;56.002;37.208;2023-04-30T15:01:56;98757.27;;;10.98;41.44
75549;BME280;64133;56.002;37.208;2023-04-30T15:07:02;98738.27;;;10.71;41.99
75549;BME280;64133;56.002;37.208;2023-04-30T15:12:07;98718.86;;;10.72;42.61
75549;BME280;64133;56.002;37.208;2023-04-30T15:17:12;98723.48;;;10.74;42.80
75549;BME280;64133;56.002;37.208;2023-04-30T15:22:17;98717.88;;;10.73;43.04
75549;BME280;64133;56.002;37.208;2023-04-30T15:27:21;98706.17;;;10.62;43.01
75549;BME280;64133;56.002;37.208;2023-04-30T15:32:26;98698.94;;;10.50;43.39
75549;BME280;64133;56.002;37.208;2023-04-30T15:37:31;98679.28;;;10.45;44.33
75549;BME280;64133;56.002;37.208;2023-04-30T15:42:36;98672.97;;;10.42;44.19
75549;BME280;64133;56.002;37.208;2023-04-30T15:47:41;98669.88;;;10.33;44.41
75549;BME280;64133;56.002;37.208;2023-04-30T15:52:46;98665.80;;;10.24;44.84
75549;BME280;64133;56.002;37.208;2023-04-30T15:57:50;98665.20;;;10.21;45.17
75549;BME280;64133;56.002;37.208;2023-04-30T16:02:55;98667.84;;;10.21;45.48
75549;BME280;64133;56.002;37.208;2023-04-30T16:08:00;98655.61;;;10.06;45.46
75549;BME280;64133;56.002;37.208;2023-04-30T16:13:05;98642.73;;;9.93;45.84
75549;BME280;64133;56.002;37.208;2023-04-30T16:18:10;98638.77;;;9.83;46.09
75549;BME280;64133;56.002;37.208;2023-04-30T16:23:14;98629.57;;;9.74;46.92
75549;BME280;64133;56.002;37.208;2023-04-30T16:28:19;98618.64;;;9.69;46.93
75549;BME280;64133;56.002;37.208;2023-04-30T16:33:24;98596.37;;;9.63;46.86
75549;BME280;64133;56.002;37.208;2023-04-30T16:38:29;98594.01;;;9.50;47.62
75549;BME280;64133;56.002;37.208;2023-04-30T16:43:33;98577.75;;;9.41;48.39
75549;BME280;64133;56.002;37.208;2023-04-30T16:48:38;98567.02;;;9.29;48.74
75549;BME280;64133;56.002;37.208;2023-04-30T16:53:43;98555.60;;;9.24;50.09
75549;BME280;64133;56.002;37.208;2023-04-30T16:58:48;98548.06;;;9.25;50.54
75549;BME280;64133;56.002;37.208;2023-04-30T17:03:52;98541.48;;;9.16;51.51
75549;BME280;64133;56.002;37.208;2023-04-30T17:14:16;98528.20;;;8.98;54.21
75549;BME280;64133;56.002;37.208;2023-04-30T17:19:21;98526.39;;;8.89;55.24
75549;BME280;64133;56.002;37.208;2023-04-30T17:24:25;98529.28;;;8.86;56.04
75549;BME280;64133;56.002;37.208;2023-04-30T17:29:31;98494.06;;;8.63;56.82
75549;BME280;64133;56.002;37.208;2023-04-30T17:34:36;98522.45;;;8.64;57.61
75549;BME280;64133;56.002;37.208;2023-04-30T17:39:40;98518.50;;;8.54;57.85
75549;BME280;64133;56.002;37.208;2023-04-30T17:44:45;98519.73;;;8.50;57.44
75549;BME280;64133;56.002;37.208;2023-04-30T17:49:50;98518.50;;;8.39;58.38
75549;BME280;64133;56.002;37.208;2023-04-30T17:54:55;98520.03;;;8.36;59.34
75549;BME280;64133;56.002;37.208;2023-04-30T17:59:59;98508.52;;;8.33;60.07
75549;BME280;64133;56.002;37.208;2023-04-30T18:05:05;98509.95;;;8.37;60.63
75549;BME280;64133;56.002;37.208;2023-04-30T18:10:10;98503.89;;;8.15;61.25
75549;BME280;64133;56.002;37.208;2023-04-30T18:15:15;98511.95;;;8.18;61.64
75549;BME280;64133;56.002;37.208;2023-04-30T18:20:20;98487.84;;;7.93;61.91
75549;BME280;64133;56.002;37.208;2023-04-30T18:25:25;98510.27;;;8.07;62.53
75549;BME280;64133;56.002;37.208;2023-04-30T18:30:29;98513.88;;;8.00;63.73
75549;BME280;64133;56.002;37.208;2023-04-30T18:35:35;98508.25;;;7.90;64.54
75549;BME280;64133;56.002;37.208;2023-04-30T18:40:39;98506.75;;;7.81;65.18
75549;BME280;64133;56.002;37.208;2023-04-30T18:45:44;98497.28;;;7.75;66.79
75549;BME280;64133;56.002;37.208;2023-04-30T18:50:49;98499.23;;;7.62;68.05
75549;BME280;64133;56.002;37.208;2023-04-30T18:55:54;98483.79;;;7.59;68.68
75549;BME280;64133;56.002;37.208;2023-04-30T19:00:58;98482.34;;;7.60;69.12
75549;BME280;64133;56.002;37.208;2023-04-30T19:06:03;98486.27;;;7.60;69.97
75549;BME280;64133;56.002;37.208;2023-04-30T19:11:08;98481.47;;;7.65;70.18
75549;BME280;64133;56.002;37.208;2023-04-30T19:16:13;98472.87;;;7.53;70.54
75549;BME280;64133;56.002;37.208;2023-04-30T19:21:18;98472.95;;;7.37;71.68
75549;BME280;64133;56.002;37.208;2023-04-30T19:26:22;98463.84;;;7.25;72.22
75549;BME280;64133;56.002;37.208;2023-04-30T19:31:27;98454.52;;;7.33;72.46
75549;BME280;64133;56.002;37.208;2023-04-30T19:36:32;98447.98;;;7.48;73.06
75549;BME280;64133;56.002;37.208;2023-04-30T19:41:37;98441.71;;;7.45;73.22
75549;BME280;64133;56.002;37.208;2023-04-30T19:46:41;98440.74;;;7.46;73.82
75549;BME280;64133;56.002;37.208;2023-04-30T19:51:46;98432.26;;;7.48;74.23
75549;BME280;64133;56.002;37.208;2023-04-30T19:56:51;98420.91;;;7.38;74.52
75549;BME280;64133;56.002;37.208;2023-04-30T20:01:56;98420.38;;;7.44;75.00
75549;BME280;64133;56.002;37.208;2023-04-30T20:07:00;98412.61;;;7.48;75.12
75549;BME280;64133;56.002;37.208;2023-04-30T20:12:07;98399.22;;;7.36;75.21
75549;BME280;64133;56.002;37.208;2023-04-30T20:17:15;98397.48;;;7.30;75.62
75549;BME280;64133;56.002;37.208;2023-04-30T20:22:20;98388.84;;;7.40;76.03
75549;BME280;64133;56.002;37.208;2023-04-30T20:27:24;98365.81;;;7.49;76.23
75549;BME280;64133;56.002;37.208;2023-04-30T20:32:29;98362.89;;;7.58;76.44
75549;BME280;64133;56.002;37.208;2023-04-30T20:37:35;98352.34;;;7.63;76.35
75549;BME280;64133;56.002;37.208;2023-04-30T20:42:38;98346.00;;;7.66;76.37
75549;BME280;64133;56.002;37.208;2023-04-30T20:47:43;98343.28;;;7.62;76.22
75549;BME280;64133;56.002;37.208;2023-04-30T20:52:50;98343.58;;;7.59;76.37
75549;BME280;64133;56.002;37.208;2023-04-30T20:57:54;98340.72;;;7.56;76.49
75549;BME280;64133;56.002;37.208;2023-04-30T21:02:59;98345.85;;;7.58;76.79
75549;BME280;64133;56.002;37.208;2023-04-30T21:08:11;98331.13;;;7.51;76.85
75549;BME280;64133;56.002;37.208;2023-04-30T21:13:13;98295.57;;;7.58;76.93
75549;BME280;64133;56.002;37.208;2023-04-30T21:18:18;98273.98;;;7.60;76.92
75549;BME280;64133;56.002;37.208;2023-04-30T21:23:27;98277.91;;;7.60;76.97
75549;BME280;64133;56.002;37.208;2023-04-30T21:28:33;98283.33;;;7.53;76.96
75549;BME280;64133;56.002;37.208;2023-04-30T21:33:38;98292.70;;;7.46;77.02
75549;BME280;64133;56.002;37.208;2023-04-30T21:38:45;98285.12;;;7.52;77.23
75549;BME280;64133;56.002;37.208;2023-04-30T21:43:47;98263.25;;;7.48;77.43
75549;BME280;64133;56.002;37.208;2023-04-30T21:48:52;98256.70;;;7.48;77.32
75549;BME280;64133;56.002;37.208;2023-04-30T21:53:56;98273.21;;;7.54;77.34
75549;BME280;64133;56.002;37.208;2023-04-30T21:59:01;98270.85;;;7.51;77.39
75549;BME280;64133;56.002;37.208;2023-04-30T22:04:06;98278.40;;;7.44;77.49
75549;BME280;64133;56.002;37.208;2023-04-30T22:09:11;98249.23;;;7.43;77.46
75549;BME280;64133;56.002;37.208;2023-04-30T22:14:19;98254.20;;;7.37;77.48
75549;BME280;64133;56.002;37.208;2023-04-30T22:19:24;98258.75;;;7.44;77.71
75549;BME280;64133;56.002;37.208;2023-04-30T22:24:28;98271.85;;;7.44;77.69
75549;BME280;64133;56.002;37.208;2023-04-30T22:29:33;98277.66;;;7.48;77.72
75549;BME280;64133;56.002;37.208;2023-04-30T22:34:40;98260.92;;;7.45;77.66
75549;BME280;64133;56.002;37.208;2023-04-30T22:39:45;98250.46;;;7.39;77.83
75549;BME280;64133;56.002;37.208;2023-04-30T22:44:50;98252.75;;;7.38;77.85
75549;BME280;64133;56.002;37.208;2023-04-30T22:49:55;98251.03;;;7.43;77.98
75549;BME280;64133;56.002;37.208;2023-04-30T22:55:00;98254.11;;;7.33;77.96
75549;BME280;64133;56.002;37.208;2023-04-30T23:00:06;98248.95;;;7.37;78.37
75549;BME280;64133;56.002;37.208;2023-04-30T23:05:11;98245.80;;;7.43;78.46
75549;BME280;64133;56.002;37.208;2023-04-30T23:10:19;98243.03;;;7.44;78.45
75549;BME280;64133;56.002;37.208;2023-04-30T23:15:23;98228.68;;;7.39;78.42
75549;BME280;64133;56.002;37.208;2023-04-30T23:20:31;98210.74;;;7.34;78.36
75549;BME280;64133;56.002;37.208;2023-04-30T23:25:35;98204.86;;;7.26;78.43
75549;BME280;64133;56.002;37.208;2023-04-30T23:30:40;98208.45;;;7.25;78.78
75549;BME280;64133;56.002;37.208;2023-04-30T23:35:45;98215.33;;;7.26;78.84
75549;BME280;64133;56.002;37.208;2023-04-30T23:40:50;98199.84;;;7.29;78.81
75549;BME280;64133;56.002;37.208;2023-04-30T23:45:54;98171.17;;;7.27;79.12
75549;BME280;64133;56.002;37.208;2023-04-30T23:51:08;98158.48;;;7.23;79.13
75549;BME280;64133;56.002;37.208;2023-04-30T23:56:13;98155.98;;;7.21;79.40
